SWA246 KSJC-KBUR
Flight info
| Callsign | SWA246 |
|---|---|
| Flight time | 0h 51m |
| Altitude | 27000 |
| Route | SPTNS1 VLREE EBAYE BURGL HONZK ROKKR3 |
| Aircraft | B737/M-SDE2E3FGHIRWXY/LB1 |
Departure
| Time | 2026-05-04 15:16 |
|---|---|
| Airport | Norman Y. Mineta San Jose International Airport (KSJC) |
Arrival
| Time | 2026-05-04 16:07 |
|---|---|
| Airport | Hollywood Burbank/Bob Hope Airport (KBUR) |
| Time | Latitude | Longitude | Altitude | Speed | Heading |
|---|---|---|---|---|---|
| 2026-05-04 15:03 | 37.36592 | -121.92639 | 66 ft | 0 kts | 49° |
| 2026-05-04 15:05 | 37.36588 | -121.92646 | 66 ft | 2 kts | 49° |
| 2026-05-04 15:05 | 37.36578 | -121.92660 | 66 ft | 2 kts | 49° |
| 2026-05-04 15:05 | 37.36568 | -121.92674 | 66 ft | 2 kts | 49° |
| 2026-05-04 15:06 | 37.36558 | -121.92689 | 66 ft | 2 kts | 69° |
| 2026-05-04 15:06 | 37.36556 | -121.92707 | 66 ft | 2 kts | 92° |
| 2026-05-04 15:06 | 37.36559 | -121.92725 | 66 ft | 2 kts | 118° |
| 2026-05-04 15:07 | 37.36571 | -121.92743 | 67 ft | 0 kts | 139° |
| 2026-05-04 15:07 | 37.36571 | -121.92742 | 67 ft | 0 kts | 139° |
| 2026-05-04 15:09 | 37.36563 | -121.92734 | 67 ft | 5 kts | 139° |
| 2026-05-04 15:09 | 37.36505 | -121.92694 | 67 ft | 13 kts | 189° |
| 2026-05-04 15:10 | 37.36350 | -121.92598 | 67 ft | 13 kts | 138° |
| 2026-05-04 15:10 | 37.36275 | -121.92516 | 67 ft | 14 kts | 138° |
| 2026-05-04 15:10 | 37.36120 | -121.92345 | 67 ft | 15 kts | 138° |
| 2026-05-04 15:11 | 37.36039 | -121.92254 | 67 ft | 15 kts | 138° |
| 2026-05-04 15:11 | 37.35953 | -121.92163 | 67 ft | 16 kts | 139° |
| 2026-05-04 15:11 | 37.35866 | -121.92067 | 67 ft | 16 kts | 138° |
| 2026-05-04 15:11 | 37.35777 | -121.91969 | 67 ft | 17 kts | 138° |
| 2026-05-04 15:12 | 37.35685 | -121.91866 | 67 ft | 17 kts | 138° |
| 2026-05-04 15:12 | 37.35589 | -121.91763 | 67 ft | 18 kts | 139° |
| 2026-05-04 15:12 | 37.35524 | -121.91693 | 67 ft | 10 kts | 139° |
| 2026-05-04 15:12 | 37.35466 | -121.91630 | 67 ft | 11 kts | 139° |
| 2026-05-04 15:13 | 37.35405 | -121.91562 | 66 ft | 12 kts | 139° |
| 2026-05-04 15:13 | 37.35375 | -121.91528 | 67 ft | 5 kts | 139° |
| 2026-05-04 15:13 | 37.35332 | -121.91482 | 67 ft | 7 kts | 140° |
| 2026-05-04 15:13 | 37.35276 | -121.91493 | 67 ft | 12 kts | 230° |
| 2026-05-04 15:14 | 37.35281 | -121.91587 | 67 ft | 12 kts | 322° |
| 2026-05-04 15:14 | 37.35300 | -121.91607 | 67 ft | 0 kts | 318° |
| 2026-05-04 15:15 | 37.35506 | -121.91833 | 67 ft | 86 kts | 319° |
| 2026-05-04 15:16 | 37.37010 | -121.93499 | 979 ft | 165 kts | 317° |
| 2026-05-04 15:16 | 37.37823 | -121.94395 | 1813 ft | 163 kts | 317° |
| 2026-05-04 15:16 | 37.39685 | -121.96431 | 2974 ft | 193 kts | 317° |
| 2026-05-04 15:17 | 37.40766 | -121.97505 | 3602 ft | 209 kts | 330° |
| 2026-05-04 15:17 | 37.43775 | -121.97504 | 4819 ft | 243 kts | 24° |
| 2026-05-04 15:17 | 37.45242 | -121.96303 | 4990 ft | 260 kts | 48° |
| 2026-05-04 15:18 | 37.46062 | -121.94270 | 5182 ft | 267 kts | 82° |
| 2026-05-04 15:18 | 37.45923 | -121.91984 | 5659 ft | 266 kts | 108° |
| 2026-05-04 15:18 | 37.45070 | -121.89921 | 6593 ft | 268 kts | 130° |
| 2026-05-04 15:19 | 37.42172 | -121.87079 | 8417 ft | 274 kts | 145° |
| 2026-05-04 15:19 | 37.40559 | -121.85728 | 9224 ft | 280 kts | 143° |
| 2026-05-04 15:19 | 37.37344 | -121.82881 | 10896 ft | 288 kts | 141° |
| 2026-05-04 15:20 | 37.35739 | -121.81417 | 11752 ft | 291 kts | 141° |
| 2026-05-04 15:20 | 37.34087 | -121.79906 | 12656 ft | 294 kts | 141° |
| 2026-05-04 15:20 | 37.32466 | -121.78365 | 13531 ft | 296 kts | 138° |
| 2026-05-04 15:20 | 37.30916 | -121.76706 | 14426 ft | 298 kts | 135° |
| 2026-05-04 15:21 | 37.29377 | -121.74943 | 15270 ft | 302 kts | 134° |
| 2026-05-04 15:21 | 37.27819 | -121.73129 | 16085 ft | 307 kts | 134° |
| 2026-05-04 15:21 | 37.24649 | -121.69488 | 17694 ft | 316 kts | 135° |
| 2026-05-04 15:22 | 37.23008 | -121.67625 | 18451 ft | 320 kts | 135° |
| 2026-05-04 15:22 | 37.21356 | -121.65756 | 19210 ft | 324 kts | 135° |
| 2026-05-04 15:22 | 37.17978 | -121.61938 | 20710 ft | 331 kts | 135° |
| 2026-05-04 15:23 | 37.16288 | -121.60031 | 21456 ft | 334 kts | 135° |
| 2026-05-04 15:23 | 37.14557 | -121.58078 | 22193 ft | 336 kts | 135° |
| 2026-05-04 15:23 | 37.12820 | -121.56118 | 22864 ft | 341 kts | 135° |
| 2026-05-04 15:23 | 37.11065 | -121.54140 | 23588 ft | 342 kts | 135° |
| 2026-05-04 15:24 | 37.07470 | -121.50089 | 24668 ft | 352 kts | 136° |
| 2026-05-04 15:24 | 37.03762 | -121.46004 | 25820 ft | 356 kts | 140° |
| 2026-05-04 15:25 | 37.01894 | -121.44016 | 26409 ft | 356 kts | 141° |
| 2026-05-04 15:25 | 36.99989 | -121.42001 | 26947 ft | 358 kts | 141° |
| 2026-05-04 15:25 | 36.98107 | -121.40009 | 27496 ft | 358 kts | 142° |
| 2026-05-04 15:26 | 36.94300 | -121.35971 | 28437 ft | 362 kts | 144° |
| 2026-05-04 15:26 | 36.92376 | -121.33928 | 28946 ft | 362 kts | 145° |
| 2026-05-04 15:26 | 36.88559 | -121.29870 | 29925 ft | 361 kts | 147° |
| 2026-05-04 15:27 | 36.86644 | -121.27837 | 30393 ft | 360 kts | 148° |
| 2026-05-04 15:27 | 36.82825 | -121.23792 | 30978 ft | 365 kts | 148° |
| 2026-05-04 15:28 | 36.77054 | -121.17670 | 31013 ft | 359 kts | 148° |
| 2026-05-04 15:29 | 36.71285 | -121.11581 | 31002 ft | 372 kts | 149° |
| 2026-05-04 15:30 | 36.62844 | -121.02741 | 30996 ft | 418 kts | 148° |
| 2026-05-04 15:30 | 36.56117 | -120.95737 | 30998 ft | 416 kts | 150° |
| 2026-05-04 15:31 | 36.49374 | -120.88884 | 30999 ft | 417 kts | 150° |
| 2026-05-04 15:32 | 36.38111 | -120.77480 | 30999 ft | 416 kts | 151° |
| 2026-05-04 15:34 | 36.26898 | -120.66164 | 31015 ft | 416 kts | 152° |
| 2026-05-04 15:34 | 36.20137 | -120.59360 | 31018 ft | 419 kts | 152° |
| 2026-05-04 15:35 | 36.13399 | -120.52589 | 31017 ft | 414 kts | 152° |
| 2026-05-04 15:36 | 36.06685 | -120.45858 | 31010 ft | 414 kts | 152° |
| 2026-05-04 15:36 | 36.02211 | -120.41386 | 31007 ft | 415 kts | 152° |
| 2026-05-04 15:37 | 35.97720 | -120.36899 | 31010 ft | 413 kts | 152° |
| 2026-05-04 15:37 | 35.93236 | -120.32430 | 31014 ft | 413 kts | 153° |
| 2026-05-04 15:38 | 35.88810 | -120.28025 | 31020 ft | 415 kts | 153° |
| 2026-05-04 15:38 | 35.84113 | -120.23768 | 31014 ft | 402 kts | 159° |
| 2026-05-04 15:39 | 35.79337 | -120.20176 | 31017 ft | 402 kts | 161° |
| 2026-05-04 15:40 | 35.72168 | -120.14918 | 31020 ft | 401 kts | 161° |
| 2026-05-04 15:40 | 35.67384 | -120.11459 | 31015 ft | 397 kts | 165° |
| 2026-05-04 15:40 | 35.64912 | -120.10003 | 31018 ft | 386 kts | 169° |
| 2026-05-04 15:41 | 35.62450 | -120.08772 | 31017 ft | 383 kts | 172° |
| 2026-05-04 15:41 | 35.57453 | -120.06526 | 31021 ft | 383 kts | 172° |
| 2026-05-04 15:42 | 35.52450 | -120.04310 | 31011 ft | 380 kts | 173° |
| 2026-05-04 15:42 | 35.47549 | -120.02108 | 31016 ft | 380 kts | 172° |
| 2026-05-04 15:43 | 35.42522 | -119.99852 | 31007 ft | 381 kts | 172° |
| 2026-05-04 15:43 | 35.37567 | -119.97611 | 31008 ft | 381 kts | 172° |
| 2026-05-04 15:44 | 35.32632 | -119.95384 | 31012 ft | 378 kts | 173° |
| 2026-05-04 15:44 | 35.27678 | -119.93143 | 30999 ft | 379 kts | 173° |
| 2026-05-04 15:44 | 35.25219 | -119.92037 | 30728 ft | 377 kts | 173° |
| 2026-05-04 15:45 | 35.22773 | -119.90932 | 30244 ft | 373 kts | 172° |
| 2026-05-04 15:45 | 35.20368 | -119.89847 | 29715 ft | 371 kts | 172° |
| 2026-05-04 15:45 | 35.17931 | -119.88746 | 29132 ft | 371 kts | 172° |
| 2026-05-04 15:45 | 35.15513 | -119.87659 | 28549 ft | 372 kts | 172° |
| 2026-05-04 15:46 | 35.13090 | -119.86530 | 27960 ft | 377 kts | 170° |
| 2026-05-04 15:46 | 35.10658 | -119.85152 | 27450 ft | 395 kts | 163° |
| 2026-05-04 15:46 | 35.08315 | -119.83322 | 26974 ft | 402 kts | 156° |
| 2026-05-04 15:46 | 35.06113 | -119.81238 | 26473 ft | 402 kts | 153° |
| 2026-05-04 15:47 | 35.04007 | -119.79070 | 25971 ft | 400 kts | 151° |
| 2026-05-04 15:47 | 35.01891 | -119.76835 | 25470 ft | 396 kts | 151° |
| 2026-05-04 15:47 | 34.99855 | -119.74672 | 24991 ft | 391 kts | 150° |
| 2026-05-04 15:47 | 34.97797 | -119.72500 | 24495 ft | 391 kts | 151° |
| 2026-05-04 15:48 | 34.95716 | -119.70337 | 24006 ft | 396 kts | 151° |
| 2026-05-04 15:48 | 34.93610 | -119.68155 | 23491 ft | 393 kts | 150° |
| 2026-05-04 15:48 | 34.89496 | -119.63908 | 22489 ft | 385 kts | 149° |
| 2026-05-04 15:49 | 34.87531 | -119.61697 | 22075 ft | 385 kts | 143° |
| 2026-05-04 15:49 | 34.85713 | -119.59307 | 21688 ft | 385 kts | 140° |
| 2026-05-04 15:49 | 34.83998 | -119.56843 | 21012 ft | 390 kts | 137° |
| 2026-05-04 15:49 | 34.82274 | -119.54285 | 20264 ft | 394 kts | 136° |
| 2026-05-04 15:50 | 34.80553 | -119.51691 | 19872 ft | 387 kts | 135° |
| 2026-05-04 15:50 | 34.78881 | -119.49159 | 19425 ft | 382 kts | 135° |
| 2026-05-04 15:50 | 34.77240 | -119.46675 | 19030 ft | 376 kts | 134° |
| 2026-05-04 15:50 | 34.75599 | -119.44167 | 18596 ft | 372 kts | 134° |
| 2026-05-04 15:51 | 34.73999 | -119.41704 | 18018 ft | 371 kts | 133° |
| 2026-05-04 15:51 | 34.72414 | -119.39262 | 17482 ft | 368 kts | 134° |
| 2026-05-04 15:51 | 34.70837 | -119.36833 | 16985 ft | 364 kts | 133° |
| 2026-05-04 15:51 | 34.69282 | -119.34444 | 16499 ft | 360 kts | 134° |
| 2026-05-04 15:52 | 34.67738 | -119.32081 | 16022 ft | 356 kts | 134° |
| 2026-05-04 15:52 | 34.66201 | -119.29742 | 15533 ft | 353 kts | 133° |
| 2026-05-04 15:52 | 34.64687 | -119.27430 | 15059 ft | 350 kts | 131° |
| 2026-05-04 15:52 | 34.63294 | -119.25042 | 14696 ft | 345 kts | 127° |
| 2026-05-04 15:53 | 34.62043 | -119.22566 | 14246 ft | 343 kts | 124° |
| 2026-05-04 15:53 | 34.60865 | -119.20089 | 13789 ft | 341 kts | 123° |
| 2026-05-04 15:53 | 34.59672 | -119.17570 | 13283 ft | 343 kts | 122° |
| 2026-05-04 15:53 | 34.58489 | -119.15107 | 12808 ft | 340 kts | 123° |
| 2026-05-04 15:54 | 34.57311 | -119.12625 | 12342 ft | 337 kts | 120° |
| 2026-05-04 15:54 | 34.56354 | -119.10077 | 11888 ft | 335 kts | 115° |
| 2026-05-04 15:54 | 34.55519 | -119.07462 | 11553 ft | 328 kts | 113° |
| 2026-05-04 15:54 | 34.54597 | -119.04999 | 11409 ft | 312 kts | 124° |
| 2026-05-04 15:55 | 34.53183 | -119.03116 | 11156 ft | 298 kts | 145° |
| 2026-05-04 15:55 | 34.51457 | -119.01761 | 10713 ft | 295 kts | 152° |
| 2026-05-04 15:55 | 34.49689 | -119.00536 | 10344 ft | 291 kts | 152° |
| 2026-05-04 15:55 | 34.47958 | -118.99277 | 10001 ft | 287 kts | 150° |
| 2026-05-04 15:56 | 34.46294 | -118.97984 | 9857 ft | 276 kts | 149° |
| 2026-05-04 15:56 | 34.44707 | -118.96705 | 9592 ft | 272 kts | 148° |
| 2026-05-04 15:56 | 34.43136 | -118.95430 | 9210 ft | 270 kts | 149° |
| 2026-05-04 15:56 | 34.41594 | -118.94183 | 8898 ft | 266 kts | 148° |
| 2026-05-04 15:57 | 34.40059 | -118.92942 | 8579 ft | 261 kts | 148° |
| 2026-05-04 15:57 | 34.38560 | -118.91731 | 8286 ft | 256 kts | 148° |
| 2026-05-04 15:57 | 34.37102 | -118.90507 | 8011 ft | 252 kts | 144° |
| 2026-05-04 15:57 | 34.35764 | -118.89143 | 7695 ft | 251 kts | 140° |
| 2026-05-04 15:58 | 34.34482 | -118.87706 | 7470 ft | 246 kts | 139° |
| 2026-05-04 15:58 | 34.33273 | -118.86340 | 7394 ft | 236 kts | 140° |
| 2026-05-04 15:58 | 34.32053 | -118.84992 | 7329 ft | 235 kts | 140° |
| 2026-05-04 15:58 | 34.30860 | -118.83695 | 7254 ft | 232 kts | 141° |
| 2026-05-04 15:59 | 34.29644 | -118.82375 | 7181 ft | 234 kts | 140° |
| 2026-05-04 15:59 | 34.28430 | -118.81049 | 7108 ft | 234 kts | 140° |
| 2026-05-04 15:59 | 34.27244 | -118.79734 | 7036 ft | 232 kts | 137° |
| 2026-05-04 15:59 | 34.26256 | -118.78221 | 6932 ft | 223 kts | 121° |
| 2026-05-04 16:00 | 34.25615 | -118.76499 | 6637 ft | 222 kts | 111° |
| 2026-05-04 16:00 | 34.25077 | -118.74776 | 6389 ft | 217 kts | 111° |
| 2026-05-04 16:00 | 34.24508 | -118.73104 | 6166 ft | 211 kts | 114° |
| 2026-05-04 16:00 | 34.23921 | -118.71504 | 5956 ft | 206 kts | 115° |
| 2026-05-04 16:01 | 34.23348 | -118.69959 | 5868 ft | 196 kts | 115° |
| 2026-05-04 16:01 | 34.22800 | -118.68477 | 5771 ft | 194 kts | 115° |
| 2026-05-04 16:01 | 34.22242 | -118.66973 | 5513 ft | 195 kts | 115° |
| 2026-05-04 16:01 | 34.21690 | -118.65475 | 5217 ft | 196 kts | 115° |
| 2026-05-04 16:02 | 34.21140 | -118.63980 | 4980 ft | 194 kts | 114° |
| 2026-05-04 16:02 | 34.20600 | -118.62506 | 4779 ft | 190 kts | 114° |
| 2026-05-04 16:02 | 34.20003 | -118.59520 | 4488 ft | 183 kts | 86° |
| 2026-05-04 16:03 | 34.20047 | -118.57962 | 4314 ft | 185 kts | 88° |
| 2026-05-04 16:03 | 34.20025 | -118.56428 | 4003 ft | 183 kts | 90° |
| 2026-05-04 16:03 | 34.19993 | -118.54906 | 3755 ft | 181 kts | 89° |
| 2026-05-04 16:03 | 34.19983 | -118.53387 | 3505 ft | 180 kts | 88° |
| 2026-05-04 16:04 | 34.19969 | -118.51878 | 3252 ft | 178 kts | 89° |
| 2026-05-04 16:04 | 34.19934 | -118.48940 | 2779 ft | 168 kts | 90° |
| 2026-05-04 16:04 | 34.19919 | -118.47575 | 2542 ft | 156 kts | 90° |
| 2026-05-04 16:05 | 34.19903 | -118.46292 | 2340 ft | 151 kts | 90° |
| 2026-05-04 16:05 | 34.19891 | -118.45036 | 2137 ft | 148 kts | 91° |
| 2026-05-04 16:05 | 34.19866 | -118.42650 | 1746 ft | 133 kts | 92° |
| 2026-05-04 16:06 | 34.19842 | -118.41560 | 1578 ft | 129 kts | 92° |
| 2026-05-04 16:06 | 34.19814 | -118.38702 | 1127 ft | 127 kts | 88° |
| 2026-05-04 16:07 | 34.19793 | -118.37437 | 910 ft | 128 kts | 90° |
| 2026-05-04 16:07 | 34.19769 | -118.35404 | 787 ft | 13 kts | 90° |
| 2026-05-04 16:08 | 34.19770 | -118.35314 | 786 ft | 10 kts | 89° |
| 2026-05-04 16:08 | 34.19767 | -118.35182 | 787 ft | 5 kts | 91° |
| 2026-05-04 16:09 | 34.19689 | -118.35153 | 787 ft | 3 kts | 180° |
| 2026-05-04 16:09 | 34.19679 | -118.35153 | 787 ft | 0 kts | 180° |